Pippa Passes, Kentucky
Current Conditions -  °F | °C
As of 6:55 AM on Saturday 01 Nov 2014 (Local Time) from KPBX Reporting Station
Drizzle Drizzle  
Wind Chill: 27°   Ceiling: 300
Heat Index: 34°   Visibility: 1.7mi
Dew Point: 34°   Wind: 9mph
Humidity: 99%   Direction: 320°NW
Pressure: 29.94"   Gusts: NA
Location:  37.33°N, 82.87°W
Report Text: KPBX 011055Z AUTO 32008KT 1 3/4SM -DZ OVC003 01/01 A2994 RMK AO2 T00120011
Loading
Personal Weather Stations






























Interactive Weather Map
Tropical Storm Tracking
New forecast layout! Learn more

10-Day Weather Forecast

Advertisements
Track Severe Weather on mobile